Time;durP1;ratioP1;P1;durP2;ratioP2;P2;SDS_P1;SDS_P2;PMS_P1;PMS_P2;Temp;Humidity;BMP_temperature;BMP_pressure;BME280_temperature;BME280_humidity;BME280_pressure;Samples;Min_cycle;Max_cycle;Signal;HPM_P1;HPM_P2
2021/08/05 00:00:51;;;;;;;5.63;3.63;;;;;;;;;;10320811;28;20433;-62
2021/08/05 00:05:50;;;;;;;6.30;3.40;;;;;;;;;;10320168;28;20052;-63
2021/08/05 00:10:48;;;;;;;5.68;3.80;;;;;;;;;;10320120;28;20399;-63
2021/08/05 00:15:48;;;;;;;8.77;3.45;;;;;;;;;;10319875;28;20040;-62
2021/08/05 00:20:46;;;;;;;7.13;3.28;;;;;;;;;;10319708;28;20076;-62
2021/08/05 00:25:45;;;;;;;4.32;3.40;;;;;;;;;;10319522;28;20044;-61
2021/08/05 00:30:43;;;;;;;7.18;4.35;;;;;;;;;;10319323;28;20059;-63
2021/08/05 00:35:43;;;;;;;6.32;3.35;;;;;;;;;;10316666;28;20425;-63
2021/08/05 00:40:41;;;;;;;6.28;3.67;;;;;;;;;;10317731;28;20513;-64
2021/08/05 00:45:40;;;;;;;5.68;4.00;;;;;;;;;;10315881;28;20567;-62
2021/08/05 00:50:38;;;;;;;6.15;4.18;;;;;;;;;;10318517;28;20037;-63
2021/08/05 00:55:38;;;;;;;6.82;3.60;;;;;;;;;;10315819;28;20044;-62
2021/08/05 01:00:38;;;;;;;6.35;3.83;;;;;;;;;;10315505;28;20052;-63
2021/08/05 01:05:37;;;;;;;6.05;4.68;;;;;;;;;;10316468;28;20089;-64
2021/08/05 01:10:40;;;;;;;10.13;4.28;;;;;;;;;;10314727;28;20132;-63
2021/08/05 01:15:40;;;;;;;6.60;4.63;;;;;;;;;;10317735;28;20044;-63
2021/08/05 01:20:40;;;;;;;10.55;4.35;;;;;;;;;;10315482;28;20055;-63
2021/08/05 01:25:45;;;;;;;8.07;5.10;;;;;;;;;;10317643;28;20056;-63
2021/08/05 01:30:45;;;;;;;6.65;4.97;;;;;;;;;;10315072;28;20044;-63
2021/08/05 01:35:44;;;;;;;9.77;4.93;;;;;;;;;;10314813;28;20040;-63
2021/08/05 01:40:42;;;;;;;6.88;4.93;;;;;;;;;;10315871;28;20060;-63
2021/08/05 01:45:41;;;;;;;7.38;4.70;;;;;;;;;;10319350;28;20516;-61
2021/08/05 01:50:42;;;;;;;6.63;4.93;;;;;;;;;;10315409;28;20087;-61
2021/08/05 01:55:41;;;;;;;9.50;4.72;;;;;;;;;;10315763;28;20041;-61
2021/08/05 02:00:40;;;;;;;5.00;4.45;;;;;;;;;;10314339;28;20088;-63
2021/08/05 02:05:41;;;;;;;7.93;4.65;;;;;;;;;;10314587;28;20516;-62
2021/08/05 02:10:43;;;;;;;6.50;4.68;;;;;;;;;;10315466;28;20044;-63
2021/08/05 02:15:44;;;;;;;9.55;4.85;;;;;;;;;;10314530;28;20048;-63
2021/08/05 02:20:43;;;;;;;5.30;4.80;;;;;;;;;;10314196;28;20060;-63
2021/08/05 02:25:44;;;;;;;8.48;5.18;;;;;;;;;;10314286;28;20040;-62
2021/08/05 02:30:43;;;;;;;4.88;4.38;;;;;;;;;;10313959;28;20407;-63
2021/08/05 02:35:43;;;;;;;6.38;4.88;;;;;;;;;;10315912;28;20452;-62
2021/08/05 02:40:43;;;;;;;5.85;5.00;;;;;;;;;;10313463;28;20059;-61
2021/08/05 02:45:44;;;;;;;5.05;4.30;;;;;;;;;;10319585;28;20086;-63
2021/08/05 02:50:42;;;;;;;8.10;4.65;;;;;;;;;;10320901;28;20053;-62
2021/08/05 02:55:43;;;;;;;7.90;4.78;;;;;;;;;;10323034;28;20040;-63
2021/08/05 03:00:43;;;;;;;7.70;5.03;;;;;;;;;;10324425;28;20505;-63
2021/08/05 03:05:42;;;;;;;11.93;5.45;;;;;;;;;;10343787;28;20056;-63
2021/08/05 03:10:41;;;;;;;8.13;4.88;;;;;;;;;;10343655;28;20044;-61
2021/08/05 03:15:39;;;;;;;8.85;5.97;;;;;;;;;;10347464;28;20051;-61
2021/08/05 03:20:39;;;;;;;9.48;5.13;;;;;;;;;;10348277;28;20083;-62
2021/08/05 03:25:37;;;;;;;5.60;4.82;;;;;;;;;;10340297;28;20055;-62
2021/08/05 03:30:35;;;;;;;10.60;5.47;;;;;;;;;;10339285;28;20570;-62
2021/08/05 03:35:34;;;;;;;8.43;5.85;;;;;;;;;;10335994;28;20079;-63
2021/08/05 03:40:33;;;;;;;13.10;5.78;;;;;;;;;;10321689;28;20091;-63
2021/08/05 03:45:32;;;;;;;8.02;5.78;;;;;;;;;;10316984;28;20402;-64
2021/08/05 03:50:30;;;;;;;13.48;6.00;;;;;;;;;;10316689;28;20707;-63
2021/08/05 03:55:29;;;;;;;12.50;7.10;;;;;;;;;;10316271;28;20075;-63
2021/08/05 04:00:28;;;;;;;16.45;11.05;;;;;;;;;;10320190;28;20083;-63
2021/08/05 04:05:27;;;;;;;14.55;7.50;;;;;;;;;;10320275;28;20068;-63
2021/08/05 04:10:25;;;;;;;13.98;7.25;;;;;;;;;;10319833;28;20068;-63
2021/08/05 04:15:24;;;;;;;18.33;15.00;;;;;;;;;;10319733;28;20040;-63
2021/08/05 04:20:23;;;;;;;14.93;8.30;;;;;;;;;;10319456;28;20480;-63
2021/08/05 04:25:22;;;;;;;10.43;7.15;;;;;;;;;;10319371;28;20048;-63
2021/08/05 04:30:21;;;;;;;12.98;8.73;;;;;;;;;;10318172;28;20045;-63
2021/08/05 04:35:19;;;;;;;23.50;8.55;;;;;;;;;;10318815;28;20372;-63
2021/08/05 04:40:19;;;;;;;26.92;18.77;;;;;;;;;;10315697;28;20088;-63
2021/08/05 04:45:18;;;;;;;16.73;10.18;;;;;;;;;;10316250;28;20469;-63
2021/08/05 04:50:17;;;;;;;10.35;7.85;;;;;;;;;;10316325;28;20041;-63
2021/08/05 04:55:15;;;;;;;12.43;7.68;;;;;;;;;;10318128;28;20040;-64
2021/08/05 05:00:15;;;;;;;14.00;8.48;;;;;;;;;;10316855;28;20080;-63
2021/08/05 05:05:14;;;;;;;11.10;7.00;;;;;;;;;;10317039;28;20536;-62
2021/08/05 05:10:12;;;;;;;14.82;7.65;;;;;;;;;;10315973;28;20033;-63
2021/08/05 05:15:11;;;;;;;12.57;8.25;;;;;;;;;;10317511;28;20421;-63
2021/08/05 05:20:11;;;;;;;12.35;7.47;;;;;;;;;;10316440;28;20091;-63
2021/08/05 05:25:11;;;;;;;14.25;7.15;;;;;;;;;;10317735;28;20425;-63
2021/08/05 05:30:10;;;;;;;13.63;8.77;;;;;;;;;;10317247;28;20042;-62
2021/08/05 05:35:09;;;;;;;10.52;8.38;;;;;;;;;;10317117;28;20044;-63
2021/08/05 05:40:09;;;;;;;15.48;7.72;;;;;;;;;;10316143;28;20088;-64
2021/08/05 05:45:09;;;;;;;13.82;7.97;;;;;;;;;;10316798;28;20520;-64
2021/08/05 05:50:09;;;;;;;15.18;8.10;;;;;;;;;;10317216;28;20075;-64
2021/08/05 05:55:10;;;;;;;15.10;7.65;;;;;;;;;;10321436;28;20048;-62
2021/08/05 06:00:09;;;;;;;13.90;7.10;;;;;;;;;;10317920;28;20040;-63
2021/08/05 06:05:10;;;;;;;12.57;7.55;;;;;;;;;;10316496;28;20072;-64
2021/08/05 06:10:10;;;;;;;10.70;7.28;;;;;;;;;;10315420;28;20406;-63
2021/08/05 06:15:09;;;;;;;11.27;8.52;;;;;;;;;;10316271;28;20047;-64
2021/08/05 06:20:08;;;;;;;13.43;7.78;;;;;;;;;;10321022;28;20076;-63
2021/08/05 06:25:08;;;;;;;12.57;7.20;;;;;;;;;;10323535;28;20041;-63
2021/08/05 06:30:08;;;;;;;15.15;8.23;;;;;;;;;;10325266;28;20047;-63
2021/08/05 06:35:07;;;;;;;12.07;7.32;;;;;;;;;;10324441;28;20076;-63
2021/08/05 06:40:06;;;;;;;11.75;8.23;;;;;;;;;;10322592;28;20123;-63
2021/08/05 06:45:05;;;;;;;16.60;8.52;;;;;;;;;;10323388;28;20072;-62
2021/08/05 06:50:05;;;;;;;11.50;7.82;;;;;;;;;;10323316;28;20108;-62
2021/08/05 06:55:04;;;;;;;12.85;6.97;;;;;;;;;;10322211;28;20053;-62
2021/08/05 07:00:02;;;;;;;8.63;7.72;;;;;;;;;;10323098;28;20226;-64
2021/08/05 07:05:03;;;;;;;8.45;7.45;;;;;;;;;;10322847;28;20041;-64
2021/08/05 07:10:04;;;;;;;9.18;7.53;;;;;;;;;;10322780;28;20051;-64
2021/08/05 07:15:02;;;;;;;13.25;7.53;;;;;;;;;;10322563;28;20039;-64
2021/08/05 07:20:01;;;;;;;12.80;7.43;;;;;;;;;;10322346;28;20106;-62
2021/08/05 07:24:59;;;;;;;9.77;7.38;;;;;;;;;;10322139;28;20413;-64
2021/08/05 07:29:59;;;;;;;8.40;7.00;;;;;;;;;;10320985;28;20056;-64
2021/08/05 07:34:57;;;;;;;12.18;7.63;;;;;;;;;;10321866;28;20068;-64
2021/08/05 07:39:55;;;;;;;13.50;7.63;;;;;;;;;;10320947;28;20555;-62
2021/08/05 07:44:54;;;;;;;10.18;7.07;;;;;;;;;;10321303;28;20041;-63
2021/08/05 07:49:54;;;;;;;11.40;6.57;;;;;;;;;;10320732;28;20084;-63
2021/08/05 07:54:52;;;;;;;10.50;7.50;;;;;;;;;;10320977;28;20047;-63
2021/08/05 07:59:50;;;;;;;8.27;7.15;;;;;;;;;;10320784;28;20516;-62
2021/08/05 08:04:49;;;;;;;8.90;6.18;;;;;;;;;;10319942;28;20107;-63
2021/08/05 08:09:48;;;;;;;10.00;8.00;;;;;;;;;;10319855;28;20595;-63
2021/08/05 08:14:47;;;;;;;12.18;6.57;;;;;;;;;;10319327;28;20036;-63
2021/08/05 08:19:45;;;;;;;9.90;6.57;;;;;;;;;;10319829;28;20044;-64
2021/08/05 08:24:43;;;;;;;8.57;6.97;;;;;;;;;;10319745;28;20520;-63
2021/08/05 08:29:43;;;;;;;9.18;6.32;;;;;;;;;;10319496;28;20056;-63
2021/08/05 08:34:41;;;;;;;12.52;7.55;;;;;;;;;;10319363;28;20166;-63
2021/08/05 08:39:40;;;;;;;14.52;7.30;;;;;;;;;;10318481;28;20048;-63
2021/08/05 08:44:39;;;;;;;10.98;8.20;;;;;;;;;;10318805;28;20493;-63
2021/08/05 08:49:39;;;;;;;22.95;10.93;;;;;;;;;;10318555;28;20045;-63
2021/08/05 08:54:43;;;;;;;12.23;8.18;;;;;;;;;;10318490;28;20532;-63
2021/08/05 08:59:42;;;;;;;12.30;7.43;;;;;;;;;;10318469;28;20067;-63
2021/08/05 09:04:46;;;;;;;11.27;7.47;;;;;;;;;;10318240;28;20083;-63
2021/08/05 09:09:44;;;;;;;18.50;8.13;;;;;;;;;;10317973;28;20068;-63
2021/08/05 09:14:43;;;;;;;15.02;8.93;;;;;;;;;;10317065;28;20041;-63
2021/08/05 09:19:42;;;;;;;24.60;10.65;;;;;;;;;;10317693;28;20048;-63
2021/08/05 09:24:41;;;;;;;26.95;9.63;;;;;;;;;;10317666;28;20106;-63
2021/08/05 09:29:43;;;;;;;11.05;7.63;;;;;;;;;;10317493;28;20464;-63
2021/08/05 09:34:44;;;;;;;20.80;7.10;;;;;;;;;;10317446;28;20130;-62
2021/08/05 09:39:45;;;;;;;39.80;9.93;;;;;;;;;;10316638;28;20056;-64
2021/08/05 09:44:45;;;;;;;29.05;9.93;;;;;;;;;;10316989;28;20072;-64
2021/08/05 09:49:52;;;;;;;27.02;10.73;;;;;;;;;;10317107;28;20033;-65
2021/08/05 09:54:52;;;;;;;14.20;8.02;;;;;;;;;;10316295;28;20052;-65
2021/08/05 09:59:54;;;;;;;14.43;8.05;;;;;;;;;;10316755;28;20059;-65
2021/08/05 10:04:53;;;;;;;11.82;7.30;;;;;;;;;;10316646;28;20083;-64
2021/08/05 10:09:59;;;;;;;11.02;6.72;;;;;;;;;;10316395;28;20049;-65
2021/08/05 10:15:08;;;;;;;11.48;8.30;;;;;;;;;;10316657;28;20044;-63
2021/08/05 10:20:08;;;;;;;22.98;8.35;;;;;;;;;;10316551;28;20048;-64
2021/08/05 10:25:09;;;;;;;13.55;7.18;;;;;;;;;;10316267;28;20080;-63
2021/08/05 10:30:09;;;;;;;16.33;7.60;;;;;;;;;;10316371;28;20501;-63
2021/08/05 10:35:08;;;;;;;11.15;7.90;;;;;;;;;;10316171;28;20044;-64
2021/08/05 10:40:09;;;;;;;9.90;7.07;;;;;;;;;;10315377;28;20053;-63
2021/08/05 10:45:07;;;;;;;19.95;7.95;;;;;;;;;;10316079;28;20084;-63
2021/08/05 10:50:10;;;;;;;14.80;7.57;;;;;;;;;;10315955;28;20044;-64
2021/08/05 10:55:24;;;;;;;14.98;7.65;;;;;;;;;;10315561;28;20045;-63
2021/08/05 11:00:22;;;;;;;12.25;8.18;;;;;;;;;;10315757;28;20051;-64
2021/08/05 11:05:39;;;;;;;11.93;7.63;;;;;;;;;;10317289;28;20072;-62
2021/08/05 11:10:39;;;;;;;13.30;7.38;;;;;;;;;;10322866;28;20532;-63
2021/08/05 11:15:50;;;;;;;14.85;7.60;;;;;;;;;;10322726;28;20045;-63
2021/08/05 11:21:03;;;;;;;10.52;6.65;;;;;;;;;;10322990;28;20040;-62
2021/08/05 11:26:06;;;;;;;11.98;6.75;;;;;;;;;;10323608;28;20504;-63
2021/08/05 11:31:05;;;;;;;12.45;6.88;;;;;;;;;;10322232;28;20048;-64
2021/08/05 11:36:19;;;;;;;16.67;6.95;;;;;;;;;;10322043;28;20056;-63
2021/08/05 11:41:38;;;;;;;11.30;7.40;;;;;;;;;;10321059;28;20516;-63
2021/08/05 11:46:37;;;;;;;14.18;7.72;;;;;;;;;;10320638;28;20045;-64
2021/08/05 11:51:37;;;;;;;12.15;6.88;;;;;;;;;;10320299;28;20055;-63
2021/08/05 11:56:37;;;;;;;10.05;5.53;;;;;;;;;;10320745;28;20056;-64
2021/08/05 12:01:35;;;;;;;15.85;6.38;;;;;;;;;;10320402;28;20053;-64
2021/08/05 12:06:34;;;;;;;13.88;6.38;;;;;;;;;;10319553;28;20056;-66
2021/08/05 12:11:33;;;;;;;14.35;6.45;;;;;;;;;;10319350;28;20037;-65
2021/08/05 12:16:45;;;;;;;11.35;7.15;;;;;;;;;;10319247;28;20092;-65
2021/08/05 12:21:47;;;;;;;11.80;6.20;;;;;;;;;;10319354;28;20512;-64
2021/08/05 12:26:46;;;;;;;22.70;6.95;;;;;;;;;;10319823;28;20055;-64
2021/08/05 12:31:45;;;;;;;17.05;6.40;;;;;;;;;;10318662;28;20040;-64
2021/08/05 12:36:44;;;;;;;21.92;6.10;;;;;;;;;;10318867;28;20059;-64
2021/08/05 12:41:46;;;;;;;18.80;6.50;;;;;;;;;;10318335;28;20091;-65
2021/08/05 12:46:47;;;;;;;14.82;6.53;;;;;;;;;;10318089;28;20417;-64
2021/08/05 12:51:46;;;;;;;21.10;9.43;;;;;;;;;;10318178;28;20051;-62
2021/08/05 12:56:45;;;;;;;21.15;6.07;;;;;;;;;;10317776;28;20060;-63
2021/08/05 13:01:44;;;;;;;21.00;5.85;;;;;;;;;;10317329;28;20395;-63
2021/08/05 13:06:55;;;;;;;17.65;7.05;;;;;;;;;;10317379;28;20063;-64
2021/08/05 13:11:55;;;;;;;17.60;7.80;;;;;;;;;;10317085;28;20056;-64
2021/08/05 13:17:03;;;;;;;25.75;6.95;;;;;;;;;;10317471;28;20049;-66
2021/08/05 13:22:05;;;;;;;22.90;6.78;;;;;;;;;;10317057;28;20044;-63
2021/08/05 13:27:16;;;;;;;16.23;6.20;;;;;;;;;;10316288;28;20047;-63
2021/08/05 13:32:16;;;;;;;20.27;6.47;;;;;;;;;;10317366;28;20130;-63
2021/08/05 13:37:25;;;;;;;14.30;6.22;;;;;;;;;;10316628;28;20052;-63
2021/08/05 13:42:24;;;;;;;21.52;6.35;;;;;;;;;;10316541;28;20080;-63
2021/08/05 13:47:22;;;;;;;22.73;6.20;;;;;;;;;;10316345;28;20040;-63
2021/08/05 13:52:20;;;;;;;26.58;7.75;;;;;;;;;;10316202;28;20055;-64
2021/08/05 13:57:20;;;;;;;14.30;6.45;;;;;;;;;;10316688;28;20056;-62
2021/08/05 14:02:18;;;;;;;25.60;8.95;;;;;;;;;;10316047;28;20049;-63
2021/08/05 14:07:17;;;;;;;21.05;5.93;;;;;;;;;;10316522;28;20409;-65
2021/08/05 14:12:16;;;;;;;14.18;6.90;;;;;;;;;;10315952;28;20048;-63
2021/08/05 14:17:15;;;;;;;19.27;7.93;;;;;;;;;;10315855;28;20045;-65
2021/08/05 14:22:14;;;;;;;19.75;7.70;;;;;;;;;;10315711;28;20056;-65
2021/08/05 14:27:12;;;;;;;15.80;6.43;;;;;;;;;;10316346;28;20468;-65
2021/08/05 14:32:11;;;;;;;13.52;6.53;;;;;;;;;;10315615;28;20052;-64
2021/08/05 14:37:11;;;;;;;18.48;7.30;;;;;;;;;;10318721;28;20076;-64
2021/08/05 14:42:09;;;;;;;22.98;8.02;;;;;;;;;;10327396;28;20064;-64
2021/08/05 14:47:08;;;;;;;21.48;7.38;;;;;;;;;;10342523;28;20064;-64
2021/08/05 14:52:06;;;;;;;11.52;7.43;;;;;;;;;;10351428;28;20079;-63
2021/08/05 14:57:06;;;;;;;19.25;7.25;;;;;;;;;;10360158;28;20048;-63
2021/08/05 15:02:07;;;;;;;16.75;7.75;;;;;;;;;;10328340;28;20079;-64
2021/08/05 15:07:05;;;;;;;20.67;9.98;;;;;;;;;;10346790;28;20072;-64
2021/08/05 15:12:04;;;;;;;17.90;6.88;;;;;;;;;;10317802;28;20078;-62
2021/08/05 15:17:05;;;;;;;20.23;6.15;;;;;;;;;;10319592;28;20110;-63
2021/08/05 15:22:04;;;;;;;16.27;8.35;;;;;;;;;;10321012;28;20084;-63
2021/08/05 15:27:02;;;;;;;22.15;7.28;;;;;;;;;;10321219;28;20068;-65
2021/08/05 15:32:01;;;;;;;19.55;7.10;;;;;;;;;;10320817;28;20051;-63
2021/08/05 15:37:01;;;;;;;18.92;7.22;;;;;;;;;;10320589;28;20099;-67
2021/08/05 15:41:59;;;;;;;17.27;6.63;;;;;;;;;;10321055;28;20517;-69
2021/08/05 15:46:58;;;;;;;21.35;7.10;;;;;;;;;;10320499;28;20076;-68
2021/08/05 15:51:56;;;;;;;15.82;8.75;;;;;;;;;;10319983;28;20047;-68
2021/08/05 15:56:56;;;;;;;17.70;8.13;;;;;;;;;;10368180;28;20036;-68
2021/08/05 16:01:54;;;;;;;22.75;7.63;;;;;;;;;;10321779;28;20053;-67
2021/08/05 16:06:53;;;;;;;19.55;7.32;;;;;;;;;;10319950;28;20075;-68
2021/08/05 16:11:51;;;;;;;23.00;7.43;;;;;;;;;;10319640;28;20417;-68
2021/08/05 16:16:51;;;;;;;14.68;7.40;;;;;;;;;;10319335;28;20051;-68
2021/08/05 16:21:50;;;;;;;14.60;5.97;;;;;;;;;;10319438;28;20076;-68
2021/08/05 16:26:49;;;;;;;18.35;7.20;;;;;;;;;;10318668;28;20072;-67
2021/08/05 16:31:47;;;;;;;16.45;7.60;;;;;;;;;;10328365;28;20401;-67
2021/08/05 16:36:47;;;;;;;15.52;7.10;;;;;;;;;;10334689;28;20037;-68
2021/08/05 16:41:45;;;;;;;12.18;7.47;;;;;;;;;;10319075;28;20045;-66
2021/08/05 16:46:45;;;;;;;20.33;8.60;;;;;;;;;;10317808;28;20531;-66
2021/08/05 16:51:44;;;;;;;16.38;7.18;;;;;;;;;;10318025;28;20040;-69
2021/08/05 16:56:44;;;;;;;18.48;6.53;;;;;;;;;;10317592;28;20548;-70
2021/08/05 17:01:42;;;;;;;16.83;7.38;;;;;;;;;;10317475;28;20037;-68
2021/08/05 17:06:41;;;;;;;18.27;8.45;;;;;;;;;;10323290;28;20087;-66
2021/08/05 17:11:39;;;;;;;31.30;7.72;;;;;;;;;;10341430;28;20501;-66
2021/08/05 17:16:39;;;;;;;17.80;7.53;;;;;;;;;;10329782;28;20083;-66
2021/08/05 17:21:37;;;;;;;25.35;9.48;;;;;;;;;;10333789;28;20060;-67
2021/08/05 17:26:35;;;;;;;14.90;9.20;;;;;;;;;;10333978;28;20079;-65
2021/08/05 17:31:33;;;;;;;13.65;7.55;;;;;;;;;;10334469;28;20078;-65
2021/08/05 17:36:33;;;;;;;16.75;8.27;;;;;;;;;;10332555;28;20072;-66
2021/08/05 17:41:32;;;;;;;19.60;8.23;;;;;;;;;;10334390;28;20056;-66
2021/08/05 17:46:30;;;;;;;27.52;9.40;;;;;;;;;;10315793;28;20083;-66
2021/08/05 17:51:30;;;;;;;20.70;6.63;;;;;;;;;;10315761;28;20069;-66
2021/08/05 17:56:29;;;;;;;14.98;7.40;;;;;;;;;;10315468;28;20075;-67
2021/08/05 18:01:28;;;;;;;15.25;6.97;;;;;;;;;;10319634;28;20496;-66
2021/08/05 18:06:26;;;;;;;16.73;7.05;;;;;;;;;;10335466;28;20078;-66
2021/08/05 18:11:25;;;;;;;18.33;7.43;;;;;;;;;;10343161;28;20453;-66
2021/08/05 18:16:25;;;;;;;15.90;7.00;;;;;;;;;;10335799;28;20130;-66
2021/08/05 18:21:24;;;;;;;14.63;6.93;;;;;;;;;;10346294;28;20071;-66
2021/08/05 18:26:22;;;;;;;15.57;7.90;;;;;;;;;;10361388;28;20082;-67
2021/08/05 18:31:20;;;;;;;18.83;7.47;;;;;;;;;;10342847;28;20044;-65
2021/08/05 18:36:20;;;;;;;15.43;6.97;;;;;;;;;;10346524;28;20045;-66
2021/08/05 18:41:18;;;;;;;16.40;7.05;;;;;;;;;;10345528;28;20121;-66
2021/08/05 18:46:17;;;;;;;13.60;6.32;;;;;;;;;;10324422;28;20558;-65
2021/08/05 18:51:16;;;;;;;15.27;6.57;;;;;;;;;;10331022;28;20524;-66
2021/08/05 18:56:15;;;;;;;20.55;6.68;;;;;;;;;;10325213;28;20056;-65
2021/08/05 19:01:14;;;;;;;13.63;6.07;;;;;;;;;;10342375;28;20501;-65
2021/08/05 19:06:12;;;;;;;10.70;6.10;;;;;;;;;;10354421;28;20079;-66
2021/08/05 19:11:11;;;;;;;14.60;6.72;;;;;;;;;;10349150;28;20075;-66
2021/08/05 19:16:10;;;;;;;16.42;6.43;;;;;;;;;;10332717;28;20044;-65
2021/08/05 19:21:09;;;;;;;16.20;6.57;;;;;;;;;;10342966;28;20055;-67
2021/08/05 19:26:07;;;;;;;11.02;5.85;;;;;;;;;;10319994;28;20075;-65
2021/08/05 19:31:07;;;;;;;11.50;5.80;;;;;;;;;;10342575;28;20091;-67
2021/08/05 19:36:07;;;;;;;14.98;6.25;;;;;;;;;;10336239;28;20036;-67
2021/08/05 19:41:05;;;;;;;12.13;6.45;;;;;;;;;;10355312;28;20437;-67
2021/08/05 19:46:03;;;;;;;15.95;5.80;;;;;;;;;;10343568;28;20083;-67
2021/08/05 19:51:01;;;;;;;14.25;6.18;;;;;;;;;;10333452;28;20075;-66
2021/08/05 19:56:04;;;;;;;12.43;6.10;;;;;;;;;;10332747;28;20047;-66
2021/08/05 20:01:02;;;;;;;10.37;5.57;;;;;;;;;;10332963;28;20075;-66
2021/08/05 20:06:01;;;;;;;11.20;5.88;;;;;;;;;;10320133;28;20080;-65
2021/08/05 20:10:59;;;;;;;12.00;5.97;;;;;;;;;;10319316;28;20060;-66
2021/08/05 20:15:59;;;;;;;14.23;5.85;;;;;;;;;;10319924;28;20048;-65
2021/08/05 20:20:57;;;;;;;16.90;5.63;;;;;;;;;;10319860;28;20048;-65
2021/08/05 20:25:55;;;;;;;14.43;5.90;;;;;;;;;;10317998;28;20052;-67
2021/08/05 20:30:54;;;;;;;10.18;6.15;;;;;;;;;;10319257;28;20068;-67
2021/08/05 20:35:54;;;;;;;20.40;7.57;;;;;;;;;;10319115;28;20052;-67
2021/08/05 20:40:52;;;;;;;13.55;6.55;;;;;;;;;;10317302;28;20080;-66
2021/08/05 20:45:50;;;;;;;13.43;6.22;;;;;;;;;;10318576;28;20068;-67
2021/08/05 20:50:48;;;;;;;14.30;5.97;;;;;;;;;;10318118;28;20048;-66
2021/08/05 20:55:49;;;;;;;22.60;6.57;;;;;;;;;;10318351;28;20525;-67
2021/08/05 21:00:48;;;;;;;13.60;5.70;;;;;;;;;;10318070;28;20049;-66
2021/08/05 21:05:46;;;;;;;21.35;6.07;;;;;;;;;;10317956;28;20079;-67
2021/08/05 21:10:46;;;;;;;18.20;6.15;;;;;;;;;;10317487;28;20068;-66
2021/08/05 21:15:45;;;;;;;15.43;6.55;;;;;;;;;;10317508;28;20060;-66
2021/08/05 21:20:44;;;;;;;17.88;6.45;;;;;;;;;;10315934;28;20045;-65
2021/08/05 21:25:42;;;;;;;16.02;6.18;;;;;;;;;;10317126;28;20430;-65
2021/08/05 21:30:42;;;;;;;17.23;6.53;;;;;;;;;;10316987;28;20051;-66
2021/08/05 21:35:43;;;;;;;15.07;7.35;;;;;;;;;;10316364;28;20064;-66
2021/08/05 21:40:42;;;;;;;17.42;8.32;;;;;;;;;;10316326;28;20052;-65
2021/08/05 21:45:40;;;;;;;16.27;7.10;;;;;;;;;;10316516;28;20080;-66
2021/08/05 21:50:39;;;;;;;24.92;8.05;;;;;;;;;;10315890;28;20494;-66
2021/08/05 21:55:39;;;;;;;15.85;9.63;;;;;;;;;;10316624;28;20040;-65
2021/08/05 22:00:37;;;;;;;14.77;8.80;;;;;;;;;;10315430;28;20525;-67
2021/08/05 22:05:36;;;;;;;20.88;9.45;;;;;;;;;;10318197;28;20052;-67
2021/08/05 22:10:34;;;;;;;24.92;10.52;;;;;;;;;;10342108;28;20044;-67
2021/08/05 22:15:34;;;;;;;19.70;9.80;;;;;;;;;;10316847;28;20037;-67
2021/08/05 22:20:32;;;;;;;26.65;9.50;;;;;;;;;;10316905;28;20051;-66
2021/08/05 22:25:33;;;;;;;22.60;11.07;;;;;;;;;;10316130;28;20079;-66
2021/08/05 22:30:32;;;;;;;21.10;9.05;;;;;;;;;;10315675;28;20080;-66
2021/08/05 22:35:32;;;;;;;18.52;8.75;;;;;;;;;;10315716;28;20048;-66
2021/08/05 22:40:30;;;;;;;20.10;10.70;;;;;;;;;;10314949;28;20460;-67
2021/08/05 22:45:29;;;;;;;28.67;10.25;;;;;;;;;;10315293;28;20069;-66
2021/08/05 22:50:28;;;;;;;22.55;11.50;;;;;;;;;;10335350;28;20052;-66
2021/08/05 22:55:29;;;;;;;19.60;11.10;;;;;;;;;;10317724;28;20490;-67
2021/08/05 23:00:27;;;;;;;21.75;11.90;;;;;;;;;;10313118;28;20049;-66
2021/08/05 23:05:26;;;;;;;25.67;13.18;;;;;;;;;;10320824;28;20091;-66
2021/08/05 23:10:24;;;;;;;51.10;37.60;;;;;;;;;;10321636;28;20047;-66
2021/08/05 23:15:24;;;;;;;52.33;33.28;;;;;;;;;;10322125;28;20044;-66
2021/08/05 23:20:22;;;;;;;40.85;23.88;;;;;;;;;;10320954;28;20158;-66
2021/08/05 23:25:20;;;;;;;76.60;55.03;;;;;;;;;;10321030;28;20079;-66
2021/08/05 23:30:19;;;;;;;19.20;13.32;;;;;;;;;;10321620;28;20048;-67
2021/08/05 23:35:20;;;;;;;24.23;15.70;;;;;;;;;;10321365;28;20045;-67
2021/08/05 23:40:18;;;;;;;19.42;12.38;;;;;;;;;;10320777;28;20076;-67
2021/08/05 23:45:16;;;;;;;20.77;12.07;;;;;;;;;;10320760;28;20048;-67
2021/08/05 23:50:15;;;;;;;16.38;12.00;;;;;;;;;;10320485;28;20072;-67
2021/08/05 23:55:16;;;;;;;25.00;12.40;;;;;;;;;;10319920;28;20048;-67
